createdAt,value
2018-01-17T00:00:15.748Z,24.18
2018-01-17T00:01:15.696Z,24.27
2018-01-17T00:02:15.699Z,24.27
2018-01-17T00:03:15.664Z,24.37
2018-01-17T00:04:15.684Z,23.99
2018-01-17T00:05:15.644Z,23.9
2018-01-17T00:06:15.707Z,23.9
2018-01-17T00:07:15.586Z,24.27
2018-01-17T00:08:15.588Z,24.18
2018-01-17T00:09:15.869Z,24.37
2018-01-17T00:10:15.552Z,24.37
2018-01-17T00:11:15.567Z,23.99
2018-01-17T00:12:15.839Z,23.52
2018-01-17T00:13:15.485Z,23.52
2018-01-17T00:14:15.430Z,23.61
2018-01-17T00:15:15.501Z,23.24
2018-01-17T00:16:15.462Z,23.33
2018-01-17T00:17:15.383Z,23.24
2018-01-17T00:18:15.380Z,23.24
2018-01-17T00:19:15.372Z,23.05
2018-01-17T00:20:15.373Z,22.38
2018-01-17T00:21:15.362Z,22.67
2018-01-17T00:22:15.306Z,22.48
2018-01-17T00:23:15.295Z,22.48
2018-01-17T00:24:15.296Z,22.1
2018-01-17T00:25:15.299Z,21.63
2018-01-17T00:26:15.200Z,21.63
2018-01-17T00:27:15.476Z,21.53
2018-01-17T00:28:15.168Z,22.1
2018-01-17T00:29:15.198Z,21.82
2018-01-17T00:30:15.188Z,22.48
2018-01-17T00:31:15.454Z,22.38
2018-01-17T00:32:15.164Z,21.91
2018-01-17T00:33:15.107Z,22.48
2018-01-17T00:34:15.097Z,22.95
2018-01-17T00:35:15.037Z,22.76
2018-01-17T00:36:15.330Z,22.86
2018-01-17T00:37:15.346Z,22.67
2018-01-17T00:38:15.021Z,22.57
2018-01-17T00:39:14.968Z,22.86
2018-01-17T00:40:14.958Z,23.24
2018-01-17T00:41:15.197Z,23.24
2018-01-17T00:42:15.165Z,23.43
2018-01-17T00:43:14.874Z,23.71
2018-01-17T00:44:14.856Z,23.14
2018-01-17T00:45:14.835Z,23.24
2018-01-17T00:46:15.089Z,23.24
2018-01-17T00:47:15.109Z,23.33
2018-01-17T00:48:14.780Z,23.24
2018-01-17T00:49:14.759Z,23.52
2018-01-17T00:50:14.736Z,23.8
2018-01-17T00:51:14.717Z,23.99
2018-01-17T00:52:14.704Z,23.61
2018-01-17T00:53:14.948Z,23.24
2018-01-17T00:54:14.662Z,23.52
2018-01-17T00:55:14.918Z,23.33
2018-01-17T00:56:14.934Z,23.14
2018-01-17T00:57:14.606Z,23.33
2018-01-17T00:58:14.586Z,23.24
2018-01-17T00:59:14.566Z,22.48
2018-01-17T01:00:14.548Z,22.48
2018-01-17T01:01:14.529Z,21.91
2018-01-17T01:02:14.780Z,21.91
2018-01-17T01:03:14.762Z,21.63
2018-01-17T01:04:14.744Z,21.63
2018-01-17T01:05:14.655Z,21.53
2018-01-17T01:06:14.432Z,21.72
2018-01-17T01:07:14.413Z,22.09
2018-01-17T01:08:14.392Z,22.01
2018-01-17T01:09:14.644Z,21.82
2018-01-17T01:10:14.355Z,21.25
2018-01-17T01:11:14.336Z,20.97
2018-01-17T01:12:14.317Z,20.31
2018-01-17T01:13:14.297Z,20.21
2018-01-17T01:14:14.277Z,20.12
2018-01-17T01:15:14.258Z,19.92
2018-01-17T01:16:14.242Z,19.26
2018-01-17T01:17:14.221Z,19.45
2018-01-17T01:18:14.200Z,18.89
2018-01-17T01:19:14.464Z,18.89
2018-01-17T01:20:14.162Z,18.51
2018-01-17T01:21:14.415Z,17.85
2018-01-17T01:22:14.123Z,17.85
2018-01-17T01:23:14.115Z,17.76
2018-01-17T01:24:14.083Z,17.76
2018-01-17T01:25:14.351Z,17.76
2018-01-17T01:26:14.045Z,17.85
2018-01-17T01:27:14.027Z,18.32
2018-01-17T01:28:14.013Z,18.89
2018-01-17T01:29:13.988Z,19.08
2018-01-17T01:30:13.991Z,19.27
2018-01-17T01:31:14.248Z,19.27
2018-01-17T01:32:13.968Z,19.55
2018-01-17T01:33:14.234Z,19.17
2018-01-17T01:34:13.912Z,19.27
2018-01-17T01:35:13.903Z,19.84
2018-01-17T01:36:13.877Z,19.84
2018-01-17T01:37:14.136Z,19.93
2018-01-17T01:38:13.837Z,19.93
2018-01-17T01:39:13.795Z,19.55
2018-01-17T01:40:14.050Z,19.84
2018-01-17T01:41:13.768Z,19.74
2018-01-17T01:42:13.759Z,19.46
2018-01-17T01:43:13.741Z,19.84
2018-01-17T01:44:13.994Z,20.03
2018-01-17T01:45:13.700Z,20.5
2018-01-17T01:46:13.681Z,20.78
2018-01-17T01:47:13.662Z,20.78
2018-01-17T01:48:13.645Z,21.06
2018-01-17T01:49:13.622Z,20.97
2018-01-17T01:50:13.605Z,21.63
2018-01-17T01:51:13.866Z,21.82
2018-01-17T01:52:13.841Z,22.29
2018-01-17T01:53:13.566Z,22.38
2018-01-17T01:54:13.826Z,22.48
2018-01-17T01:55:13.805Z,22.38
2018-01-17T01:56:13.493Z,22.57
2018-01-17T01:57:13.490Z,22.48
2018-01-17T01:58:13.452Z,22.48
2018-01-17T01:59:13.432Z,23.05
2018-01-17T02:00:13.412Z,23.33
2018-01-17T02:01:13.668Z,23.33
2018-01-17T02:02:13.379Z,23.71
2018-01-17T02:03:13.355Z,23.52
2018-01-17T02:04:13.613Z,23.9
2018-01-17T02:05:13.598Z,24.18
2018-01-17T02:06:13.574Z,24.55
2018-01-17T02:07:13.275Z,24.55
2018-01-17T02:08:13.256Z,24.74
2018-01-17T02:09:13.517Z,25.03
2018-01-17T02:10:13.240Z,24.65
2018-01-17T02:11:13.476Z,24.74
2018-01-17T02:12:13.457Z,24.55
2018-01-17T02:13:13.161Z,24.37
2018-01-17T02:14:13.143Z,24.37
2018-01-17T02:15:13.400Z,24.27
2018-01-17T02:16:13.107Z,23.9
2018-01-17T02:17:13.094Z,24.08
2018-01-17T02:18:13.066Z,24.27
2018-01-17T02:19:13.350Z,24.08
2018-01-17T02:20:13.006Z,23.61
2018-01-17T02:21:12.985Z,23.43
2018-01-17T02:22:13.236Z,23.9
2018-01-17T02:23:12.947Z,23.8
2018-01-17T02:24:12.927Z,23.99
2018-01-17T02:25:12.919Z,24.27
2018-01-17T02:26:12.889Z,24.27
2018-01-17T02:27:12.870Z,24.37
2018-01-17T02:28:13.146Z,24.55
2018-01-17T02:29:12.831Z,24.93
2018-01-17T02:30:12.813Z,25.31
2018-01-17T02:31:13.066Z,25.69
2018-01-17T02:32:12.776Z,25.69
2018-01-17T02:33:12.755Z,25.6
2018-01-17T02:34:12.738Z,25.5
2018-01-17T02:35:12.990Z,26.17
2018-01-17T02:36:12.699Z,26.17
2018-01-17T02:37:12.678Z,26.26
2018-01-17T02:38:12.661Z,26.26
2018-01-17T02:39:12.643Z,26.45
2018-01-17T02:40:12.639Z,25.98
2018-01-17T02:41:12.604Z,25.69
2018-01-17T02:42:12.586Z,25.31
2018-01-17T02:43:12.839Z,25.23
2018-01-17T02:44:12.816Z,24.85
2018-01-17T02:45:12.528Z,24.74
2018-01-17T02:46:12.798Z,24.29
2018-01-17T02:47:12.505Z,24.38
2018-01-17T02:48:12.752Z,24.29
2018-01-17T02:49:12.727Z,24.29
2018-01-17T02:50:12.706Z,24.19
2018-01-17T02:51:12.414Z,24.1
2018-01-17T02:52:12.688Z,24.1
2018-01-17T02:53:12.377Z,24.29
2018-01-17T02:54:12.378Z,24.29
2018-01-17T02:55:12.339Z,24.29
2018-01-17T02:56:12.592Z,24.19
2018-01-17T02:57:12.601Z,23.72
2018-01-17T02:58:12.556Z,23.53
2018-01-17T02:59:12.265Z,23.44
2018-01-17T03:00:12.241Z,23.25
2018-01-17T03:01:12.229Z,23.53
2018-01-17T03:02:12.212Z,23.34
2018-01-17T03:03:12.186Z,22.77
2018-01-17T03:04:12.170Z,22.77
2018-01-17T03:05:12.443Z,22.39
2018-01-17T03:06:12.142Z,22.49
2018-01-17T03:07:12.384Z,22.39
2018-01-17T03:08:12.364Z,21.92
2018-01-17T03:09:12.346Z,21.83
2018-01-17T03:10:12.055Z,21.64
2018-01-17T03:11:12.037Z,21.55
2018-01-17T03:12:12.019Z,21.36
2018-01-17T03:13:11.995Z,21.36
2018-01-17T03:14:11.977Z,20.89
2018-01-17T03:15:11.960Z,20.51
2018-01-17T03:16:12.211Z,20.79
2018-01-17T03:17:12.206Z,20.03
2018-01-17T03:18:12.172Z,20.32
2018-01-17T03:19:12.157Z,19.84
2018-01-17T03:20:12.137Z,19.75
2018-01-17T03:21:12.123Z,19.37
2018-01-17T03:22:12.104Z,19.46
2018-01-17T03:23:11.829Z,19.46
2018-01-17T03:24:11.787Z,19.75
2018-01-17T03:25:11.769Z,19.08
2018-01-17T03:26:11.751Z,18.79
2018-01-17T03:27:11.734Z,18.33
2018-01-17T03:28:12.002Z,18.33
2018-01-17T03:29:11.973Z,18.33
2018-01-17T03:30:11.968Z,17.96
2018-01-17T03:31:11.656Z,17.86
2018-01-17T03:32:11.636Z,18.33
2018-01-17T03:33:11.622Z,18.52
2018-01-17T03:34:11.602Z,18.52
2018-01-17T03:35:11.579Z,18.15
2018-01-17T03:36:11.563Z,18.71
2018-01-17T03:37:11.811Z,18.9
2018-01-17T03:38:11.523Z,18.71
2018-01-17T03:39:11.503Z,18.62
2018-01-17T03:40:11.757Z,18.8
2018-01-17T03:41:11.743Z,18.9
2018-01-17T03:42:11.716Z,18.9
2018-01-17T03:43:11.701Z,18.99
2018-01-17T03:44:11.411Z,19.27
2018-01-17T03:45:11.664Z,18.9
2018-01-17T03:46:11.656Z,18.8
2018-01-17T03:47:11.623Z,18.99
2018-01-17T03:48:11.652Z,19.75
2018-01-17T03:49:11.366Z,19.27
2018-01-17T03:50:11.316Z,19.84
2018-01-17T03:51:11.277Z,20.03
2018-01-17T03:52:11.535Z,20.6
2018-01-17T03:53:11.513Z,20.89
2018-01-17T03:54:11.500Z,20.98
2018-01-17T03:55:11.473Z,21.17
2018-01-17T03:56:11.186Z,20.51
2018-01-17T03:57:11.179Z,20.51
2018-01-17T03:58:11.160Z,20.13
2018-01-17T03:59:11.132Z,20.13
2018-01-17T04:00:11.111Z,20.03
2018-01-17T04:01:11.090Z,20.03
2018-01-17T04:02:11.073Z,20.51
2018-01-17T04:03:11.324Z,20.51
2018-01-17T04:04:11.304Z,20.32
2018-01-17T04:05:11.018Z,20.7
2018-01-17T04:06:11.001Z,20.89
2018-01-17T04:07:10.982Z,20.6
2018-01-17T04:08:11.246Z,20.98
2018-01-17T04:09:11.219Z,20.7
2018-01-17T04:10:10.924Z,21.17
2018-01-17T04:11:10.928Z,21.55
2018-01-17T04:12:11.157Z,21.64
2018-01-17T04:13:10.870Z,21.73
2018-01-17T04:14:10.851Z,21.92
2018-01-17T04:15:10.830Z,22.87
2018-01-17T04:16:11.089Z,23.15
2018-01-17T04:17:10.793Z,23.63
2018-01-17T04:18:10.777Z,23.72
2018-01-17T04:19:11.030Z,23.91
2018-01-17T04:20:10.740Z,24.19
2018-01-17T04:21:10.993Z,24.48
2018-01-17T04:22:10.703Z,24.29
2018-01-17T04:23:10.990Z,24.85
2018-01-17T04:24:10.668Z,24.66
2018-01-17T04:25:10.676Z,24.95
2018-01-17T04:26:10.917Z,25.04
2018-01-17T04:27:10.628Z,25.8
2018-01-17T04:28:10.594Z,26.38
2018-01-17T04:29:10.868Z,26.46
2018-01-17T04:30:10.553Z,26.65
2018-01-17T04:31:10.620Z,27.03
2018-01-17T04:32:10.519Z,26.84
2018-01-17T04:33:10.498Z,26.84
2018-01-17T04:34:10.482Z,27.22
2018-01-17T04:35:10.736Z,26.75
2018-01-17T04:36:10.469Z,26.93
2018-01-17T04:37:10.459Z,27.03
2018-01-17T04:38:10.411Z,27.12
2018-01-17T04:39:10.393Z,27.04
2018-01-17T04:40:10.641Z,26.75
2018-01-17T04:41:10.354Z,27.12
2018-01-17T04:42:10.603Z,27.31
2018-01-17T04:43:10.317Z,27.12
2018-01-17T04:44:10.573Z,27.03
2018-01-17T04:45:10.280Z,27.14
2018-01-17T04:46:10.533Z,26.76
2018-01-17T04:47:10.259Z,26.28
2018-01-17T04:48:10.497Z,26.09
2018-01-17T04:49:10.206Z,26.19
2018-01-17T04:50:10.207Z,26.09
2018-01-17T04:51:10.169Z,26.19
2018-01-17T04:52:10.153Z,26.28
2018-01-17T04:53:10.134Z,25.62
2018-01-17T04:54:10.133Z,25.9
2018-01-17T04:55:10.097Z,25.15
2018-01-17T04:56:10.077Z,25.15
2018-01-17T04:57:10.060Z,24.77
2018-01-17T04:58:10.061Z,24.39
2018-01-17T04:59:10.026Z,24.49
2018-01-17T05:00:10.005Z,24.39
2018-01-17T05:01:10.273Z,24.21
2018-01-17T05:02:09.978Z,24.3
2018-01-17T05:03:09.952Z,24.02
2018-01-17T05:04:09.948Z,23.92
2018-01-17T05:05:09.914Z,23.54
2018-01-17T05:06:09.896Z,23.35
2018-01-17T05:07:09.893Z,23.07
2018-01-17T05:08:10.131Z,22.41
2018-01-17T05:09:09.847Z,21.75
2018-01-17T05:10:09.826Z,22.22
2018-01-17T05:11:09.825Z,22.13
2018-01-17T05:12:10.061Z,21.46
2018-01-17T05:13:10.039Z,21.18
2018-01-17T05:14:09.748Z,20.8
2018-01-17T05:15:10.028Z,20.23
2018-01-17T05:16:09.714Z,20.23
2018-01-17T05:17:09.968Z,19.95
2018-01-17T05:18:09.678Z,19.57
2018-01-17T05:19:09.659Z,19.38
2018-01-17T05:20:09.914Z,19.38
2018-01-17T05:21:09.640Z,18.81
2018-01-17T05:22:09.606Z,18.81
2018-01-17T05:23:09.583Z,18.53
2018-01-17T05:24:09.837Z,18.06
2018-01-17T05:25:09.548Z,17.87
2018-01-17T05:26:09.540Z,17.4
2018-01-17T05:27:09.546Z,16.64
2018-01-17T05:28:09.494Z,16.17
2018-01-17T05:29:09.476Z,16.26
2018-01-17T05:30:09.462Z,15.88
2018-01-17T05:31:09.708Z,15.79
2018-01-17T05:32:09.708Z,15.41
2018-01-17T05:33:09.445Z,14.84
2018-01-17T05:34:09.384Z,14.94
2018-01-17T05:35:09.365Z,14.65
2018-01-17T05:36:09.639Z,14.47
2018-01-17T05:37:09.330Z,14.09
2018-01-17T05:38:09.331Z,14.09
2018-01-17T05:39:09.292Z,13.52
2018-01-17T05:40:09.275Z,13.61
2018-01-17T05:41:09.256Z,13.42
2018-01-17T05:42:09.239Z,14.09
2018-01-17T05:43:09.220Z,14.09
2018-01-17T05:44:09.202Z,14.18
2018-01-17T05:45:09.187Z,14.28
2018-01-17T05:46:09.176Z,14.37
2018-01-17T05:47:09.181Z,14.28
2018-01-17T05:48:09.132Z,14.84
2018-01-17T05:49:09.385Z,14.75
2018-01-17T05:50:09.099Z,15.41
2018-01-17T05:51:09.075Z,15.5
2018-01-17T05:52:09.345Z,15.6
2018-01-17T05:53:09.040Z,15.6
2018-01-17T05:54:09.293Z,15.6
2018-01-17T05:55:09.275Z,15.6
2018-01-17T05:56:09.271Z,15.31
2018-01-17T05:57:08.967Z,15.31
2018-01-17T05:58:08.946Z,15.69
2018-01-17T05:59:08.929Z,15.79
2018-01-17T06:00:09.204Z,16.83
2018-01-17T06:01:08.897Z,16.83
2018-01-17T06:02:08.896Z,17.21
2018-01-17T06:03:08.856Z,17.11
2018-01-17T06:04:08.837Z,17.11
2018-01-17T06:05:09.101Z,17.3
2018-01-17T06:06:09.074Z,17.21
2018-01-17T06:07:09.070Z,17.58
2018-01-17T06:08:08.766Z,17.68
2018-01-17T06:09:08.748Z,18.06
2018-01-17T06:10:09.002Z,18.72
2018-01-17T06:11:08.713Z,19.48
2018-01-17T06:12:08.961Z,19.76
2018-01-17T06:13:08.677Z,20.14
2018-01-17T06:14:08.665Z,19.85
2018-01-17T06:15:08.636Z,20.14
2018-01-17T06:16:08.890Z,19.76
2018-01-17T06:17:08.602Z,19.95
2018-01-17T06:18:08.583Z,19.48
2018-01-17T06:19:08.834Z,19.38
2018-01-17T06:20:08.561Z,19.1
2018-01-17T06:21:08.796Z,18.81
2018-01-17T06:22:08.784Z,18.91
2018-01-17T06:23:08.489Z,18.91
2018-01-17T06:24:08.483Z,18.72
2018-01-17T06:25:08.494Z,18.24
2018-01-17T06:26:08.439Z,17.96
2018-01-17T06:27:08.689Z,17.96
2018-01-17T06:28:08.670Z,17.4
2018-01-17T06:29:08.381Z,17.02
2018-01-17T06:30:08.365Z,16.93
2018-01-17T06:31:08.347Z,17.02
2018-01-17T06:32:08.603Z,16.26
2018-01-17T06:33:08.308Z,16.17
2018-01-17T06:34:08.585Z,16.45
2018-01-17T06:35:08.270Z,16.17
2018-01-17T06:36:08.527Z,16.55
2018-01-17T06:37:08.236Z,16.07
2018-01-17T06:38:08.486Z,15.88
2018-01-17T06:39:08.218Z,15.79
2018-01-17T06:40:08.181Z,15.6
2018-01-17T06:41:08.180Z,16.17
2018-01-17T06:42:08.417Z,16.26
2018-01-17T06:43:08.153Z,16.64
2018-01-17T06:44:08.382Z,16.64
2018-01-17T06:45:08.088Z,16.53
2018-01-17T06:46:08.344Z,16.53
2018-01-17T06:47:08.055Z,16.82
2018-01-17T06:48:08.319Z,17.01
2018-01-17T06:49:08.016Z,17.01
2018-01-17T06:50:08.272Z,16.72
2018-01-17T06:51:07.980Z,16.25
2018-01-17T06:52:08.235Z,15.12
2018-01-17T06:53:07.944Z,14.93
2018-01-17T06:54:07.922Z,13.79
2018-01-17T06:55:07.906Z,13.42
2018-01-17T06:56:07.890Z,13.04
2018-01-17T06:57:07.922Z,12.76
2018-01-17T06:58:07.850Z,12.57
2018-01-17T06:59:07.838Z,12.38
2018-01-17T07:00:07.813Z,12.38
2018-01-17T07:01:08.067Z,12.38
2018-01-17T07:02:07.775Z,11.82
2018-01-17T07:03:08.035Z,12.01
2018-01-17T07:04:07.744Z,11.91
2018-01-17T07:05:07.742Z,12.1
2018-01-17T07:06:07.713Z,12.38
2018-01-17T07:07:07.959Z,12.29
2018-01-17T07:08:07.668Z,12.66
2018-01-17T07:09:07.672Z,12.76
2018-01-17T07:10:07.630Z,12.66
2018-01-17T07:11:07.613Z,13.04
2018-01-17T07:12:07.864Z,13.14
2018-01-17T07:13:07.573Z,13.23
2018-01-17T07:14:07.558Z,13.14
2018-01-17T07:15:07.541Z,12.95
2018-01-17T07:16:07.542Z,13.33
2018-01-17T07:17:07.504Z,14.84
2018-01-17T07:18:07.486Z,15.88
2018-01-17T07:19:07.468Z,16.26
2018-01-17T07:20:07.455Z,16.55
2018-01-17T07:21:07.432Z,17.11
2018-01-17T07:22:07.436Z,17.21
2018-01-17T07:23:07.393Z,17.11
2018-01-17T07:24:07.377Z,17.21
2018-01-17T07:25:07.656Z,17.21
2018-01-17T07:26:07.342Z,17.21
2018-01-17T07:27:07.594Z,17.02
2018-01-17T07:28:07.305Z,17.3
2018-01-17T07:29:07.284Z,16.93
2018-01-17T07:30:07.285Z,17.11
2018-01-17T07:31:07.250Z,17.21
2018-01-17T07:32:07.503Z,17.11
2018-01-17T07:33:07.212Z,17.49
2018-01-17T07:34:07.465Z,17.87
2018-01-17T07:35:07.446Z,18.06
2018-01-17T07:36:07.157Z,18.53
2018-01-17T07:37:07.410Z,18.91
2018-01-17T07:38:07.400Z,19.38
2018-01-17T07:39:07.372Z,20.14
2018-01-17T07:40:07.353Z,20.8
2018-01-17T07:41:07.067Z,22.78
2018-01-17T07:42:07.054Z,24.96
2018-01-17T07:43:07.027Z,26.28
2018-01-17T07:44:07.010Z,27.04
2018-01-17T07:45:07.274Z,28.16
2018-01-17T07:46:07.246Z,29.49
2018-01-17T07:47:06.955Z,30.99
2018-01-17T07:48:06.937Z,31.94
2018-01-17T07:49:07.206Z,32.6
2018-01-17T07:50:07.183Z,33.26
2018-01-17T07:51:06.884Z,33.92
2018-01-17T07:52:06.867Z,33.54
2018-01-17T07:53:06.848Z,33.26
2018-01-17T07:54:06.828Z,33.07
2018-01-17T07:55:07.084Z,33.07
2018-01-17T07:56:07.069Z,33.26
2018-01-17T07:57:06.775Z,33.26
2018-01-17T07:58:06.754Z,32.79
2018-01-17T07:59:06.752Z,33.73
2018-01-17T08:00:06.716Z,35.35
2018-01-17T08:01:06.981Z,36.85
2018-01-17T08:02:06.681Z,37.99
2018-01-17T08:03:06.937Z,39.05
2018-01-17T08:04:06.645Z,39.71
2018-01-17T08:05:06.902Z,42.08
2018-01-17T08:06:06.607Z,44.06
2018-01-17T08:07:06.592Z,45.48
2018-01-17T08:08:06.574Z,46.04
2018-01-17T08:09:06.555Z,46.33
2018-01-17T08:10:06.537Z,46.9
2018-01-17T08:11:06.854Z,46.71
2018-01-17T08:12:06.518Z,48.88
2018-01-17T08:13:06.481Z,49.26
2018-01-17T08:14:06.733Z,49.73
2018-01-17T08:15:06.447Z,50.87
2018-01-17T08:16:06.444Z,51.91
2018-01-17T08:17:06.413Z,52.38
2018-01-17T08:18:06.688Z,54.84
2018-01-17T08:19:06.372Z,56.63
2018-01-17T08:20:06.366Z,57.49
2018-01-17T08:21:06.604Z,57.3
2018-01-17T08:22:06.319Z,57.96
2018-01-17T08:23:06.574Z,57.77
2018-01-17T08:24:06.288Z,57.77
2018-01-17T08:25:06.266Z,58.53
2018-01-17T08:26:06.298Z,59.28
2018-01-17T08:27:06.231Z,59.28
2018-01-17T08:28:06.211Z,59.95
2018-01-17T08:29:06.197Z,60.23
2018-01-17T08:30:06.446Z,59.95
2018-01-17T08:31:06.454Z,62.12
2018-01-17T08:32:06.413Z,61.93
2018-01-17T08:33:06.133Z,61.74
2018-01-17T08:34:06.372Z,61.74
2018-01-17T08:35:06.086Z,60.8
2018-01-17T08:36:06.069Z,60.99
2018-01-17T08:37:06.051Z,60.04
2018-01-17T08:38:06.031Z,60.14
2018-01-17T08:39:06.029Z,59.38
2018-01-17T08:40:05.994Z,59.95
2018-01-17T08:41:06.252Z,59.85
2018-01-17T08:42:05.961Z,60.23
2018-01-17T08:43:05.941Z,60.7
2018-01-17T08:44:05.971Z,60.42
2018-01-17T08:45:05.907Z,60.04
2018-01-17T08:46:05.893Z,60.42
2018-01-17T08:47:05.912Z,59.95
2018-01-17T08:48:05.855Z,60.23
2018-01-17T08:49:05.833Z,60.23
2018-01-17T08:50:06.101Z,60.61
2018-01-17T08:51:06.069Z,61.74
2018-01-17T08:52:05.781Z,62.12
2018-01-17T08:53:06.044Z,60.99
2018-01-17T08:54:05.749Z,60.23
2018-01-17T08:55:05.728Z,58.62
2018-01-17T08:56:05.722Z,59
2018-01-17T08:57:05.694Z,58.15
2018-01-17T08:58:05.677Z,58.62
2018-01-17T08:59:05.658Z,59.09
2018-01-17T09:00:05.731Z,57.77
2018-01-17T09:01:05.625Z,59.09
2018-01-17T09:02:05.605Z,59.47
2018-01-17T09:03:05.862Z,59.69
2018-01-17T09:04:05.840Z,61.55
2018-01-17T09:05:05.551Z,61.4
2018-01-17T09:06:05.539Z,63.1
2018-01-17T09:07:05.517Z,65.18
2018-01-17T09:08:05.518Z,63.85
2018-01-17T09:09:05.750Z,63.48
2018-01-17T09:10:05.464Z,63.85
2018-01-17T09:11:05.780Z,64.9
2018-01-17T09:12:05.703Z,65.18
2018-01-17T09:13:05.411Z,64.33
2018-01-17T09:14:05.663Z,63.39
2018-01-17T09:15:05.396Z,63.01
2018-01-17T09:16:05.361Z,63.57
2018-01-17T09:17:05.338Z,63.95
2018-01-17T09:18:05.594Z,64.04
2018-01-17T09:19:05.306Z,63.01
2018-01-17T09:20:05.290Z,61.68
2018-01-17T09:21:05.559Z,60.07
2018-01-17T09:22:05.520Z,59.6
2018-01-17T09:23:05.239Z,59.41
2018-01-17T09:24:05.491Z,60.07
2018-01-17T09:25:05.222Z,61.02
2018-01-17T09:26:05.182Z,61.87
2018-01-17T09:27:05.165Z,63.29
2018-01-17T09:28:05.151Z,65.37
2018-01-17T09:29:05.133Z,66.79
2018-01-17T09:30:05.117Z,67.93
2018-01-17T09:31:05.110Z,69.91
2018-01-17T09:32:05.091Z,72.66
2018-01-17T09:33:05.060Z,75.21
2018-01-17T09:34:05.988Z,74.64
2018-01-17T09:35:05.030Z,73.03
2018-01-17T09:36:05.284Z,72.09
2018-01-17T09:37:04.990Z,70.2
2018-01-17T09:38:05.244Z,69.25
2018-01-17T09:39:04.960Z,66.5
2018-01-17T09:40:05.228Z,64.29
2018-01-17T09:41:04.940Z,63.64
2018-01-17T09:42:04.905Z,61.65
2018-01-17T09:43:05.171Z,59
2018-01-17T09:44:05.142Z,56.63
2018-01-17T09:45:05.123Z,55.03
2018-01-17T09:46:04.836Z,52.29
2018-01-17T09:47:04.817Z,49.35
2018-01-17T09:48:04.796Z,48.32
2018-01-17T09:49:04.798Z,46.69
2018-01-17T09:50:04.765Z,44.23
2018-01-17T09:51:05.016Z,41.86
2018-01-17T09:52:04.725Z,39.78
2018-01-17T09:53:04.994Z,37.99
2018-01-17T09:54:04.962Z,36.76
2018-01-17T09:55:04.941Z,35.44
2018-01-17T09:56:04.653Z,34.87
2018-01-17T09:57:04.634Z,34.02
2018-01-17T09:58:04.665Z,32.89
2018-01-17T09:59:04.871Z,31.37
2018-01-17T10:00:04.579Z,29.96
2018-01-17T10:01:04.565Z,28.73
2018-01-17T10:02:04.541Z,27.59
2018-01-17T10:03:04.798Z,27.12
2018-01-17T10:04:04.795Z,26.56
2018-01-17T10:05:04.486Z,27.03
2018-01-17T10:06:04.466Z,27.12
2018-01-17T10:07:04.482Z,26.84
2018-01-17T10:08:04.456Z,26.93
2018-01-17T10:09:04.411Z,26.46
2018-01-17T10:10:04.397Z,26.37
2018-01-17T10:11:04.372Z,26.27
2018-01-17T10:12:04.367Z,26.37
2018-01-17T10:13:04.365Z,26.65
2018-01-17T10:14:04.318Z,26.56
2018-01-17T10:15:04.299Z,26.75
2018-01-17T10:16:04.555Z,26.56
2018-01-17T10:17:04.535Z,26.18
2018-01-17T10:18:04.247Z,26.65
2018-01-17T10:19:04.225Z,26.93
2018-01-17T10:20:04.484Z,28.27
2018-01-17T10:21:04.189Z,29.2
2018-01-17T10:22:04.168Z,30.82
2018-01-17T10:23:04.151Z,31.1
2018-01-17T10:24:04.130Z,32.34
2018-01-17T10:25:04.112Z,33.56
2018-01-17T10:26:04.097Z,34.23
2018-01-17T10:27:04.093Z,35.93
2018-01-17T10:28:04.058Z,36.12
2018-01-17T10:29:04.042Z,37.06
2018-01-17T10:30:04.293Z,37.25
2018-01-17T10:31:04.010Z,38.1
2018-01-17T10:32:04.258Z,38.29
2018-01-17T10:33:04.241Z,40
2018-01-17T10:34:04.446Z,42.83
2018-01-17T10:35:03.927Z,44.63
2018-01-17T10:36:04.181Z,45.86
2018-01-17T10:37:03.915Z,47.56
2018-01-17T10:38:03.875Z,47.85
2018-01-17T10:39:04.126Z,48.79
2018-01-17T10:40:03.839Z,50.02
2018-01-17T10:41:03.834Z,52.41
2018-01-17T10:42:03.805Z,54.84
2018-01-17T10:43:03.787Z,54.84
2018-01-17T10:44:04.036Z,55.44
2018-01-17T10:45:04.020Z,58.65
2018-01-17T10:46:04.006Z,61.02
2018-01-17T10:47:03.714Z,62.53
2018-01-17T10:48:03.695Z,62.91
2018-01-17T10:49:03.955Z,64.52
2018-01-17T10:50:03.668Z,66.56
2018-01-17T10:51:03.642Z,68.46
2018-01-17T10:52:03.630Z,68.36
2018-01-17T10:53:03.875Z,68.36
2018-01-17T10:54:03.876Z,66.47
2018-01-17T10:55:03.841Z,64.29
2018-01-17T10:56:03.552Z,62.59
2018-01-17T10:57:03.533Z,60.8
2018-01-17T10:58:03.517Z,61.74
2018-01-17T10:59:03.768Z,60.04
2018-01-17T11:00:03.476Z,58.62
2018-01-17T11:01:03.459Z,56.26
2018-01-17T11:02:03.441Z,54.44
2018-01-17T11:03:03.426Z,52.64
2018-01-17T11:04:03.409Z,51.22
2018-01-17T11:05:03.413Z,51.03
2018-01-17T11:06:03.370Z,49.71
2018-01-17T11:07:03.625Z,50.46
2018-01-17T11:08:03.605Z,49.62
2018-01-17T11:09:03.588Z,49.8
2018-01-17T11:10:03.295Z,49.71
2018-01-17T11:11:03.286Z,50.4
2018-01-17T11:12:03.285Z,51.53
2018-01-17T11:13:03.534Z,52.26
2018-01-17T11:14:03.220Z,54.27
2018-01-17T11:15:03.220Z,57.3
2018-01-17T11:16:03.387Z,58.72
2018-01-17T11:17:03.438Z,59.06
2018-01-17T11:18:03.152Z,58.62
2018-01-17T11:19:03.405Z,58.81
2018-01-17T11:20:03.113Z,59.19
2018-01-17T11:21:03.392Z,58.72
2018-01-17T11:22:03.083Z,57.68
2018-01-17T11:23:03.059Z,59.09
2018-01-17T11:24:03.040Z,59.28
2018-01-17T11:25:03.299Z,60.23
2018-01-17T11:26:03.004Z,59.38
2018-01-17T11:27:02.994Z,59.47
2018-01-17T11:28:03.257Z,59.85
2018-01-17T11:29:02.951Z,59.85
2018-01-17T11:30:02.930Z,59.28
2018-01-17T11:31:03.188Z,60.33
2018-01-17T11:32:02.894Z,60.23
2018-01-17T11:33:02.875Z,61.83
2018-01-17T11:34:02.858Z,66.28
2018-01-17T11:35:03.109Z,65.81
2018-01-17T11:36:03.093Z,65.91
2018-01-17T11:37:02.802Z,66.66
2018-01-17T11:38:02.786Z,68.08
2018-01-17T11:39:02.768Z,67.51
2018-01-17T11:40:02.758Z,66.94
2018-01-17T11:41:02.731Z,67.03
2018-01-17T11:42:02.713Z,70.54
2018-01-17T11:43:02.707Z,70.82
2018-01-17T11:44:02.947Z,71.01
2018-01-17T11:45:02.947Z,70.76
2018-01-17T11:46:02.642Z,71.14
2018-01-17T11:47:02.624Z,73.03
2018-01-17T11:48:02.606Z,75.17
2018-01-17T11:49:02.880Z,75.49
2018-01-17T11:50:02.571Z,76.02
2018-01-17T11:51:02.561Z,74.51
2018-01-17T11:52:02.536Z,73.94
2018-01-17T11:53:02.517Z,75.74
2018-01-17T11:54:02.499Z,75.74
2018-01-17T11:55:02.482Z,74.22
2018-01-17T11:56:02.463Z,73.47
2018-01-17T11:57:02.719Z,71.86
2018-01-17T11:58:02.698Z,71.2
2018-01-17T11:59:02.415Z,72.43
2018-01-17T12:00:02.392Z,71.95
2018-01-17T12:01:02.420Z,71.01
2018-01-17T12:02:02.376Z,69.4
2018-01-17T12:03:02.340Z,69.02
2018-01-17T12:04:02.616Z,68.17
2018-01-17T12:05:02.576Z,67.13
2018-01-17T12:06:02.560Z,67.51
2018-01-17T12:07:02.267Z,67.51
2018-01-17T12:08:02.523Z,66.47
2018-01-17T12:09:02.230Z,65.53
2018-01-17T12:10:02.518Z,66.66
2018-01-17T12:11:02.466Z,68.46
2018-01-17T12:12:02.462Z,69.87
2018-01-17T12:13:02.157Z,69.97
2018-01-17T12:14:02.143Z,73.37
2018-01-17T12:15:02.139Z,72.43
2018-01-17T12:16:02.375Z,70.73
2018-01-17T12:17:02.085Z,69.68
2018-01-17T12:18:02.342Z,69.49
2018-01-17T12:19:02.341Z,69.78
2018-01-17T12:20:02.034Z,68.17
2018-01-17T12:21:02.014Z,67.79
2018-01-17T12:22:01.998Z,68.65
2018-01-17T12:23:01.979Z,70.73
2018-01-17T12:24:01.961Z,70.63
2018-01-17T12:25:01.942Z,71.11
2018-01-17T12:26:01.925Z,69.87
2018-01-17T12:27:01.914Z,69.97
2018-01-17T12:28:01.887Z,69.78
2018-01-17T12:29:02.140Z,69.68
2018-01-17T12:30:01.864Z,69.87
2018-01-17T12:31:01.834Z,69.87
2018-01-17T12:32:02.089Z,70.92
2018-01-17T12:33:01.798Z,69.31
2018-01-17T12:34:01.780Z,67.98
2018-01-17T12:35:01.764Z,67.7
2018-01-17T12:36:02.026Z,69.97
2018-01-17T12:37:01.997Z,69.97
2018-01-17T12:38:02.023Z,69.78
2018-01-17T12:39:01.689Z,72.14
2018-01-17T12:40:01.676Z,73.47
2018-01-17T12:41:01.655Z,73.18
2018-01-17T12:42:01.637Z,72.94
2018-01-17T12:43:01.635Z,72.99
2018-01-17T12:44:01.599Z,73.32
2018-01-17T12:45:01.604Z,73.94
2018-01-17T12:46:01.565Z,76.12
2018-01-17T12:47:01.545Z,78.29
2018-01-17T12:48:01.531Z,78.2
2018-01-17T12:49:01.538Z,77.63
2018-01-17T12:50:01.763Z,77.25
2018-01-17T12:51:01.744Z,75.83
2018-01-17T12:52:01.730Z,76.12
2018-01-17T12:53:01.728Z,79.24
2018-01-17T12:54:01.426Z,78.39
2018-01-17T12:55:01.405Z,79.33